createdAt,value
2019-04-03T00:00:42.444Z,115.92
2019-04-03T00:03:10.959Z,114.10
2019-04-03T00:05:39.429Z,130.97
2019-04-03T00:08:08.128Z,149.32
2019-04-03T00:10:38.100Z,149.32
2019-04-03T00:13:06.972Z,155.25
2019-04-03T00:15:35.452Z,140.57
2019-04-03T00:18:03.931Z,135.68
2019-04-03T00:20:32.526Z,140.40
2019-04-03T00:23:01.023Z,176.10
2019-04-03T00:25:29.535Z,163.50
2019-04-03T00:27:58.019Z,159.93
2019-04-03T00:30:26.572Z,159.57
2019-04-03T00:32:55.080Z,155.37
2019-04-03T00:35:23.933Z,151.68
2019-04-03T00:37:53.603Z,103.75
2019-04-03T00:40:22.745Z,93.07
2019-04-03T00:42:54.103Z,87.27
2019-04-03T00:45:24.487Z,81.05
2019-04-03T00:47:55.340Z,71.75
2019-04-03T00:50:23.444Z,76.37
2019-04-03T00:52:53.577Z,65.55
2019-04-03T00:55:22.041Z,67.58
2019-04-03T00:57:50.509Z,65.22
2019-04-03T01:00:19.126Z,60.65
2019-04-03T01:02:47.612Z,65.78
2019-04-03T01:05:16.286Z,66.02
2019-04-03T01:07:44.950Z,79.32
2019-04-03T01:10:14.285Z,68.92
2019-04-03T01:12:42.786Z,67.25
2019-04-03T01:15:11.521Z,68.02
2019-04-03T01:17:39.985Z,61.58
2019-04-03T01:20:09.084Z,61.13
2019-04-03T01:22:37.863Z,62.80
2019-04-03T01:25:08.975Z,63.63
2019-04-03T01:27:37.869Z,60.45
2019-04-03T01:30:08.282Z,61.25
2019-04-03T01:32:36.908Z,65.47
2019-04-03T01:35:08.952Z,79.32
2019-04-03T01:37:36.311Z,92.77
2019-04-03T01:40:06.555Z,93.00
2019-04-03T01:42:34.975Z,123.20
2019-04-03T01:45:03.875Z,152.47
2019-04-03T01:47:32.476Z,134.15
2019-04-03T01:50:00.962Z,114.65
2019-04-03T01:52:31.308Z,103.53
2019-04-03T01:54:59.649Z,121.22
2019-04-03T01:57:28.351Z,144.15
2019-04-03T01:59:56.897Z,116.10
2019-04-03T02:02:25.523Z,117.22
2019-04-03T02:04:53.994Z,118.53
2019-04-03T02:07:22.497Z,198.45
2019-04-03T02:09:51.234Z,189.10
2019-04-03T02:12:20.482Z,196.90
2019-04-03T02:14:50.977Z,169.80
2019-04-03T02:17:19.288Z,204.50
2019-04-03T02:19:47.757Z,213.50
2019-04-03T02:22:16.272Z,222.45
2019-04-03T02:24:44.759Z,98.92
2019-04-03T02:27:13.509Z,76.57
2019-04-03T02:29:42.166Z,69.92
2019-04-03T02:32:10.630Z,60.52
2019-04-03T02:34:39.128Z,54.30
2019-04-03T02:37:07.749Z,49.33
2019-04-03T02:39:36.247Z,64.58
2019-04-03T02:42:07.774Z,61.23
2019-04-03T02:44:35.264Z,54.05
2019-04-03T02:47:03.995Z,56.00
2019-04-03T02:49:32.469Z,56.80
2019-04-03T02:52:01.247Z,51.00
2019-04-03T02:54:34.440Z,49.23
2019-04-03T02:57:01.438Z,48.20
2019-04-03T02:59:30.094Z,43.48
2019-04-03T03:01:58.688Z,52.45
2019-04-03T03:04:27.350Z,50.30
2019-04-03T03:06:56.012Z,43.05
2019-04-03T03:09:24.590Z,48.68
2019-04-03T03:11:56.305Z,42.85
2019-04-03T03:14:24.013Z,44.50
2019-04-03T03:16:53.226Z,45.98
2019-04-03T03:19:24.183Z,48.40
2019-04-03T03:21:55.844Z,44.95
2019-04-03T03:24:28.480Z,40.78
2019-04-03T03:26:55.319Z,41.60
2019-04-03T03:29:26.915Z,47.60
2019-04-03T03:32:13.135Z,51.37
2019-04-03T03:34:47.697Z,54.00
2019-04-03T03:39:27.455Z,45.52
2019-04-03T03:41:58.581Z,47.60
2019-04-03T03:44:28.470Z,46.77
2019-04-03T03:47:01.145Z,54.05
2019-04-03T03:49:30.068Z,56.80
2019-04-03T03:52:02.620Z,54.70
2019-04-03T03:54:30.920Z,53.75
2019-04-03T03:57:04.266Z,51.08
2019-04-03T03:59:30.797Z,54.03
2019-04-03T04:02:03.252Z,55.55
2019-04-03T04:04:30.023Z,53.95
2019-04-03T04:07:02.024Z,57.10
2019-04-03T04:09:29.351Z,59.67
2019-04-03T04:11:58.880Z,62.15
2019-04-03T04:14:28.307Z,56.92
2019-04-03T04:16:57.250Z,63.73
2019-04-03T04:19:28.470Z,64.12
2019-04-03T04:21:56.532Z,63.65
2019-04-03T04:24:27.624Z,59.67
2019-04-03T04:26:55.927Z,52.93
2019-04-03T04:29:25.052Z,59.98
2019-04-03T04:31:53.628Z,57.27
2019-04-03T04:34:22.098Z,53.68
2019-04-03T04:36:50.665Z,54.50
2019-04-03T04:39:19.367Z,54.00
2019-04-03T04:41:48.008Z,48.78
2019-04-03T04:44:16.510Z,47.45
2019-04-03T04:46:45.148Z,47.62
2019-04-03T04:49:13.903Z,55.83
2019-04-03T04:51:42.678Z,49.05
2019-04-03T04:54:11.130Z,51.75
2019-04-03T04:56:39.633Z,50.75
2019-04-03T04:59:08.104Z,55.73
2019-04-03T05:01:36.718Z,50.85
2019-04-03T05:04:05.120Z,47.67
2019-04-03T05:06:33.605Z,50.12
2019-04-03T05:09:03.844Z,52.53
2019-04-03T05:11:32.289Z,54.38
2019-04-03T05:14:00.822Z,52.03
2019-04-03T05:16:29.391Z,58.38
2019-04-03T05:19:08.677Z,50.33
2019-04-03T05:21:28.399Z,56.45
2019-04-03T05:24:10.155Z,54.65
2019-04-03T05:26:27.389Z,53.23
2019-04-03T05:28:57.709Z,54.25
2019-04-03T05:31:26.118Z,51.75
2019-04-03T05:33:54.731Z,56.95
2019-04-03T05:36:23.318Z,49.42
2019-04-03T05:38:53.764Z,53.02
2019-04-03T05:41:22.034Z,73.72
2019-04-03T05:43:50.505Z,59.42
2019-04-03T05:46:19.641Z,55.17
2019-04-03T05:48:48.664Z,51.42
2019-04-03T05:51:17.165Z,50.35
2019-04-03T05:53:45.938Z,51.55
2019-04-03T05:56:14.404Z,56.10
2019-04-03T05:58:54.630Z,82.82
2019-04-03T06:01:13.453Z,100.60
2019-04-03T06:03:44.944Z,57.78
2019-04-03T06:06:14.002Z,55.65
2019-04-03T06:08:42.559Z,49.08
2019-04-03T06:11:11.125Z,51.25
2019-04-03T06:13:39.876Z,50.40
2019-04-03T06:16:08.458Z,55.73
2019-04-03T06:18:36.927Z,52.88
2019-04-03T06:21:05.504Z,54.38
2019-04-03T06:23:33.975Z,62.20
2019-04-03T06:26:03.050Z,57.70
2019-04-03T06:28:31.743Z,69.82
2019-04-03T06:31:00.354Z,68.37
2019-04-03T06:33:31.426Z,54.60
2019-04-03T06:35:59.084Z,54.27
2019-04-03T06:38:27.782Z,45.17
2019-04-03T06:40:56.219Z,43.70
2019-04-03T06:43:24.704Z,48.08
2019-04-03T06:45:53.175Z,42.38
2019-04-03T06:48:21.741Z,48.45
2019-04-03T06:50:50.313Z,48.30
2019-04-03T06:53:18.806Z,47.13
2019-04-03T06:55:47.471Z,44.35
2019-04-03T06:58:15.942Z,45.35
2019-04-03T07:00:46.440Z,47.90
2019-04-03T07:03:14.637Z,57.58
2019-04-03T07:05:43.191Z,68.28
2019-04-03T07:08:11.741Z,39.92
2019-04-03T07:10:40.455Z,53.55
2019-04-03T07:13:08.971Z,45.25
2019-04-03T07:15:37.475Z,45.45
2019-04-03T07:18:06.721Z,42.08
2019-04-03T07:20:35.398Z,42.83
2019-04-03T07:23:03.899Z,40.23
2019-04-03T07:25:33.972Z,49.55
2019-04-03T07:28:02.861Z,45.85
2019-04-03T07:30:31.356Z,47.20
2019-04-03T07:33:00.081Z,41.45
2019-04-03T07:35:28.743Z,45.70
2019-04-03T07:37:57.217Z,43.13
2019-04-03T07:40:25.701Z,50.90
2019-04-03T07:42:55.985Z,48.48
2019-04-03T07:45:25.831Z,40.88
2019-04-03T07:47:54.537Z,43.28
2019-04-03T07:50:23.392Z,42.03
2019-04-03T07:52:51.925Z,52.90
2019-04-03T07:55:20.590Z,46.88
2019-04-03T07:57:50.644Z,55.73
2019-04-03T08:00:19.487Z,51.88
2019-04-03T08:02:49.943Z,54.30
2019-04-03T08:05:18.492Z,50.67
2019-04-03T08:07:47.005Z,43.40
2019-04-03T08:10:16.284Z,47.58
2019-04-03T08:12:45.025Z,62.73
2019-04-03T08:15:14.104Z,51.77
2019-04-03T08:17:42.603Z,48.23
2019-04-03T08:20:11.543Z,48.80
2019-04-03T08:22:40.197Z,52.53
2019-04-03T08:25:12.109Z,48.23
2019-04-03T08:27:39.282Z,64.42
2019-04-03T08:30:08.863Z,46.85
2019-04-03T08:32:37.609Z,47.17
2019-04-03T08:35:19.419Z,46.50
2019-04-03T08:37:40.646Z,46.30
2019-04-03T08:40:08.914Z,44.23
2019-04-03T08:42:37.499Z,72.47
2019-04-03T08:45:10.727Z,48.87
2019-04-03T08:47:39.554Z,38.48
2019-04-03T08:50:10.772Z,43.40
2019-04-03T08:52:39.715Z,112.95
2019-04-03T08:55:08.863Z,184.82
2019-04-03T08:57:37.682Z,47.90
2019-04-03T09:00:10.846Z,46.92
2019-04-03T09:02:42.468Z,39.60
2019-04-03T09:05:09.864Z,39.78
2019-04-03T09:07:38.333Z,72.82
2019-04-03T09:10:08.319Z,60.85
2019-04-03T09:12:38.449Z,101.80
2019-04-03T09:15:10.099Z,53.48
2019-04-03T09:17:39.397Z,45.08
2019-04-03T09:20:08.849Z,86.67
2019-04-03T09:22:37.550Z,49.33
2019-04-03T09:25:07.830Z,42.23
2019-04-03T09:27:37.955Z,40.98
2019-04-03T09:30:09.599Z,42.75
2019-04-03T09:32:38.086Z,43.45
2019-04-03T09:35:07.796Z,44.20
2019-04-03T09:37:38.078Z,87.95
2019-04-03T09:40:07.272Z,58.02
2019-04-03T09:42:35.742Z,40.45
2019-04-03T09:45:06.140Z,45.43
2019-04-03T09:47:34.995Z,53.92
2019-04-03T09:50:08.762Z,48.60
2019-04-03T09:52:41.508Z,46.53
2019-04-03T09:55:08.340Z,35.40
2019-04-03T09:57:36.850Z,64.25
2019-04-03T10:00:10.589Z,31.93
2019-04-03T10:02:40.091Z,44.42
2019-04-03T10:05:09.011Z,39.92
2019-04-03T10:07:37.607Z,36.05
2019-04-03T10:10:08.404Z,62.20
2019-04-03T10:12:36.952Z,85.28
2019-04-03T10:15:07.836Z,31.15
2019-04-03T10:17:38.222Z,33.25
2019-04-03T10:20:10.487Z,29.65
2019-04-03T10:25:08.287Z,36.80
2019-04-03T10:27:36.926Z,36.75
2019-04-03T10:30:08.557Z,31.00
2019-04-03T10:32:37.049Z,34.10
2019-04-03T10:35:08.226Z,44.88
2019-04-03T10:37:37.286Z,60.15
2019-04-03T10:40:08.009Z,29.92
2019-04-03T10:42:36.836Z,23.07
2019-04-03T10:45:08.499Z,51.58
2019-04-03T10:47:42.019Z,56.85
2019-04-03T10:50:08.309Z,97.88
2019-04-03T10:52:36.947Z,29.30
2019-04-03T10:55:06.987Z,31.80
2019-04-03T10:57:36.146Z,41.37
2019-04-03T11:00:07.770Z,74.92
2019-04-03T11:02:36.615Z,41.50
2019-04-03T11:05:07.561Z,26.25
2019-04-03T11:07:36.098Z,35.03
2019-04-03T11:10:07.124Z,28.05
2019-04-03T11:12:35.615Z,34.15
2019-04-03T11:15:06.982Z,26.95
2019-04-03T11:17:35.513Z,24.92
2019-04-03T11:20:09.714Z,44.45
2019-04-03T11:22:41.852Z,44.13
2019-04-03T11:25:13.983Z,35.40
2019-04-03T11:30:17.035Z,21.17
2019-04-03T11:32:42.779Z,38.92
2019-04-03T11:35:13.823Z,27.80
2019-04-03T11:37:43.746Z,35.10
2019-04-03T11:40:13.924Z,53.42
2019-04-03T11:42:42.358Z,21.60
2019-04-03T11:45:11.413Z,18.40
2019-04-03T11:47:39.883Z,19.25
2019-04-03T11:50:10.198Z,20.50
2019-04-03T11:52:38.984Z,16.55
2019-04-03T11:55:10.873Z,18.10
2019-04-03T11:57:38.204Z,22.98
2019-04-03T12:00:13.443Z,17.87
2019-04-03T12:02:44.023Z,34.38
2019-04-03T12:05:15.317Z,40.43
2019-04-03T12:07:43.375Z,111.80
2019-04-03T12:10:12.528Z,35.00
2019-04-03T12:12:42.073Z,187.62
2019-04-03T12:15:11.947Z,23.15
2019-04-03T12:17:41.600Z,25.85
2019-04-03T12:20:11.034Z,39.30
2019-04-03T12:22:39.603Z,46.10
2019-04-03T12:25:08.708Z,22.32
2019-04-03T12:27:37.205Z,63.98
2019-04-03T12:30:08.421Z,66.07
2019-04-03T12:32:42.876Z,41.42
2019-04-03T12:35:09.843Z,36.63
2019-04-03T12:37:38.499Z,76.82
2019-04-03T12:40:08.385Z,59.98
2019-04-03T12:42:36.914Z,40.67
2019-04-03T12:45:09.490Z,50.05
2019-04-03T12:47:38.237Z,22.52
2019-04-03T12:50:08.543Z,33.98
2019-04-03T12:52:37.061Z,23.42
2019-04-03T12:55:07.504Z,63.08
2019-04-03T12:57:38.960Z,54.25
2019-04-03T13:00:12.947Z,20.52
2019-04-03T13:02:42.567Z,28.50
2019-04-03T13:05:11.194Z,33.90
2019-04-03T13:07:39.651Z,22.77
2019-04-03T13:10:10.124Z,26.15
2019-04-03T13:12:39.200Z,18.67
2019-04-03T13:15:11.643Z,19.27
2019-04-03T13:17:43.248Z,21.55
2019-04-03T13:20:11.304Z,21.17
2019-04-03T13:22:42.151Z,23.32
2019-04-03T13:25:10.727Z,15.60
2019-04-03T13:27:39.768Z,16.77
2019-04-03T13:30:13.833Z,20.55
2019-04-03T13:32:56.735Z,20.60
2019-04-03T13:35:16.441Z,14.40
2019-04-03T13:37:45.181Z,23.52
2019-04-03T13:40:14.587Z,29.77
2019-04-03T13:42:43.057Z,27.67
2019-04-03T13:45:11.976Z,40.20
2019-04-03T13:47:42.215Z,29.77
2019-04-03T13:50:11.607Z,39.92
2019-04-03T13:52:43.488Z,29.15
2019-04-03T13:55:10.618Z,28.40
2019-04-03T13:57:39.510Z,40.70
2019-04-03T14:00:18.146Z,53.00
2019-04-03T14:02:40.095Z,60.43
2019-04-03T14:05:09.902Z,56.88
2019-04-03T14:07:41.788Z,98.03
2019-04-03T14:10:12.140Z,50.20
2019-04-03T14:12:44.161Z,36.15
2019-04-03T14:15:11.198Z,72.75
2019-04-03T14:17:39.799Z,44.93
2019-04-03T14:20:12.044Z,71.33
2019-04-03T14:25:19.871Z,85.12
2019-04-03T14:27:39.556Z,65.67
2019-04-03T14:30:11.135Z,53.20
2019-04-03T14:32:39.987Z,67.70
2019-04-03T14:35:41.230Z,50.03
2019-04-03T14:37:40.016Z,58.38
2019-04-03T14:40:12.265Z,68.60
2019-04-03T14:42:39.742Z,54.88
2019-04-03T14:45:08.986Z,63.38
2019-04-03T14:47:37.701Z,39.35
2019-04-03T14:50:07.448Z,59.60
2019-04-03T14:52:36.330Z,56.40
2019-04-03T14:55:18.111Z,43.08
2019-04-03T14:57:37.476Z,54.35
2019-04-03T15:00:23.350Z,50.17
2019-04-03T15:02:40.389Z,47.45
2019-04-03T15:05:10.163Z,33.75
2019-04-03T15:07:38.698Z,52.73
2019-04-03T15:10:08.503Z,40.15
2019-04-03T15:12:39.875Z,25.30
2019-04-03T15:15:09.639Z,30.88
2019-04-03T15:17:38.896Z,31.07
2019-04-03T15:20:09.460Z,39.80
2019-04-03T15:22:38.172Z,43.28
2019-04-03T15:25:07.520Z,51.53
2019-04-03T15:27:36.034Z,47.43
2019-04-03T15:30:09.357Z,45.35
2019-04-03T15:32:36.771Z,48.35
2019-04-03T15:35:07.983Z,57.98
2019-04-03T15:37:40.078Z,86.40
2019-04-03T15:40:07.304Z,75.08
2019-04-03T15:42:38.487Z,67.60
2019-04-03T15:45:09.160Z,37.25
2019-04-03T15:47:41.905Z,43.68
2019-04-03T15:50:08.707Z,51.30
2019-04-03T15:52:37.346Z,57.55
2019-04-03T15:55:07.754Z,58.38
2019-04-03T15:57:39.124Z,43.73
2019-04-03T16:00:12.456Z,60.55
2019-04-03T16:02:44.360Z,56.42
2019-04-03T16:05:12.210Z,51.02
2019-04-03T16:07:42.418Z,43.78
2019-04-03T16:10:11.829Z,57.30
2019-04-03T16:12:42.956Z,135.37
2019-04-03T16:15:11.008Z,106.92
2019-04-03T16:17:39.861Z,90.32
2019-04-03T16:20:08.820Z,99.72
2019-04-03T16:22:37.281Z,99.15
2019-04-03T16:25:07.403Z,102.20
2019-04-03T16:27:36.326Z,73.40
2019-04-03T16:30:09.794Z,158.72
2019-04-03T16:32:39.050Z,124.02
2019-04-03T16:35:09.062Z,87.35
2019-04-03T16:37:38.324Z,82.95
2019-04-03T16:40:08.237Z,105.47
2019-04-03T16:42:37.091Z,84.22
2019-04-03T16:45:09.367Z,61.13
2019-04-03T16:47:38.021Z,74.75
2019-04-03T16:50:11.218Z,63.68
2019-04-03T16:52:40.050Z,53.10
2019-04-03T16:55:09.192Z,53.68
2019-04-03T16:57:38.157Z,127.40
2019-04-03T17:00:10.025Z,44.20
2019-04-03T17:02:39.004Z,45.33
2019-04-03T17:05:10.485Z,44.58
2019-04-03T17:07:38.606Z,57.40
2019-04-03T17:10:09.994Z,52.50
2019-04-03T17:12:38.170Z,57.08
2019-04-03T17:15:08.521Z,54.00
2019-04-03T17:17:37.016Z,54.23
2019-04-03T17:20:08.038Z,58.48
2019-04-03T17:22:39.419Z,65.77
2019-04-03T17:25:07.967Z,68.45
2019-04-03T17:27:36.478Z,69.53
2019-04-03T17:30:10.273Z,87.08
2019-04-03T17:32:39.220Z,90.67
2019-04-03T17:35:08.951Z,118.50
2019-04-03T17:37:37.566Z,99.42
2019-04-03T17:40:09.133Z,123.00
2019-04-03T17:42:39.308Z,83.47
2019-04-03T17:45:09.724Z,90.45
2019-04-03T17:47:38.207Z,98.50
2019-04-03T17:50:08.240Z,136.65
2019-04-03T17:52:37.079Z,112.80
2019-04-03T17:55:10.131Z,91.20
2019-04-03T17:57:39.160Z,107.22
2019-04-03T18:00:16.081Z,101.58
2019-04-03T18:02:45.127Z,112.28
2019-04-03T18:05:14.036Z,91.10
2019-04-03T18:07:42.545Z,94.50
2019-04-03T18:10:12.983Z,72.78
2019-04-03T18:12:41.713Z,87.75
2019-04-03T18:15:11.687Z,79.12
2019-04-03T18:17:40.227Z,142.62
2019-04-03T18:20:12.514Z,88.25
2019-04-03T18:22:39.771Z,73.72
2019-04-03T18:25:08.892Z,74.15
2019-04-03T18:27:37.477Z,70.15
2019-04-03T18:30:11.145Z,67.78
2019-04-03T18:32:38.787Z,58.75
2019-04-03T18:35:08.102Z,71.72
2019-04-03T18:37:36.600Z,60.25
2019-04-03T18:40:07.247Z,71.33
2019-04-03T18:42:35.721Z,106.95
2019-04-03T18:45:06.077Z,81.82
2019-04-03T18:47:41.268Z,105.25
2019-04-03T18:50:09.798Z,109.20
2019-04-03T18:52:38.600Z,114.65
2019-04-03T18:55:08.046Z,111.55
2019-04-03T18:57:36.600Z,129.25
2019-04-03T19:00:08.261Z,123.65
2019-04-03T19:02:36.744Z,77.20
2019-04-03T19:05:10.057Z,58.00
2019-04-03T19:07:37.644Z,59.48
2019-04-03T19:10:07.891Z,56.68
2019-04-03T19:12:36.740Z,98.87
2019-04-03T19:15:06.658Z,118.35
2019-04-03T19:17:35.148Z,161.80
2019-04-03T19:20:10.605Z,164.37
2019-04-03T19:22:35.565Z,157.90
2019-04-03T19:25:07.985Z,172.55
2019-04-03T19:27:36.500Z,175.30
2019-04-03T19:30:07.896Z,170.87
2019-04-03T19:32:36.663Z,153.55
2019-04-03T19:35:09.224Z,147.20
2019-04-03T19:40:09.695Z,133.63
2019-04-03T19:42:37.363Z,120.95
2019-04-03T19:45:07.700Z,114.77
2019-04-03T19:47:36.329Z,93.27
2019-04-03T19:50:07.352Z,90.55
2019-04-03T19:52:37.445Z,87.97
2019-04-03T19:55:07.639Z,65.60
2019-04-03T19:57:36.118Z,69.62
2019-04-03T20:00:06.327Z,63.63
2019-04-03T20:02:37.708Z,72.20
2019-04-03T20:05:07.074Z,104.70
2019-04-03T20:07:35.556Z,84.47
2019-04-03T20:10:11.101Z,62.88
2019-04-03T20:12:39.572Z,60.88
2019-04-03T20:15:08.892Z,42.78
2019-04-03T20:17:37.394Z,45.83
2019-04-03T20:20:07.778Z,44.95
2019-04-03T20:22:37.877Z,44.65
2019-04-03T20:25:07.413Z,33.38
2019-04-03T20:27:36.266Z,36.03
2019-04-03T20:30:09.140Z,34.20
2019-04-03T20:32:39.845Z,33.83
2019-04-03T20:35:08.092Z,36.25
2019-04-03T20:37:36.590Z,32.73
2019-04-03T20:40:06.807Z,33.33
2019-04-03T20:42:35.356Z,31.30
2019-04-03T20:45:05.800Z,36.58
2019-04-03T20:47:34.248Z,32.40
2019-04-03T20:50:06.709Z,31.68
2019-04-03T20:52:34.780Z,32.30
2019-04-03T20:55:06.169Z,36.75
2019-04-03T20:57:34.641Z,39.15
2019-04-03T21:00:04.824Z,44.73
2019-04-03T21:02:33.296Z,45.85
2019-04-03T21:05:01.792Z,45.78
2019-04-03T21:07:30.272Z,44.50
2019-04-03T21:10:00.642Z,43.15
2019-04-03T21:12:29.011Z,53.42
2019-04-03T21:15:07.797Z,48.20
2019-04-03T21:17:27.684Z,46.65
2019-04-03T21:19:56.158Z,49.50
2019-04-03T21:22:24.644Z,54.95
2019-04-03T21:24:53.133Z,52.70
2019-04-03T21:27:21.624Z,53.78
2019-04-03T21:29:50.123Z,77.12
2019-04-03T21:32:18.595Z,95.80
2019-04-03T21:34:47.116Z,126.33
2019-04-03T21:37:15.589Z,121.92
2019-04-03T21:39:44.456Z,105.85
2019-04-03T21:42:13.031Z,84.70
2019-04-03T21:44:41.532Z,58.68
2019-04-03T21:47:11.645Z,54.88
2019-04-03T21:49:40.218Z,72.58
2019-04-03T21:52:08.719Z,65.50
2019-04-03T21:54:37.185Z,60.00
2019-04-03T21:57:06.757Z,77.87
2019-04-03T21:59:35.415Z,89.13
2019-04-03T22:02:04.251Z,73.70
2019-04-03T22:04:32.754Z,74.70
2019-04-03T22:07:01.221Z,73.80
2019-04-03T22:09:30.795Z,86.02
2019-04-03T22:11:59.778Z,70.32
2019-04-03T22:14:28.252Z,65.12
2019-04-03T22:16:56.746Z,51.48
2019-04-03T22:19:27.400Z,49.13
2019-04-03T22:21:55.619Z,45.70
2019-04-03T22:24:24.195Z,42.78
2019-04-03T22:26:52.656Z,46.95
2019-04-03T22:29:21.248Z,46.25
2019-04-03T22:31:53.719Z,43.20
2019-04-03T22:34:20.833Z,46.05
2019-04-03T22:36:49.336Z,40.00
2019-04-03T22:39:17.803Z,38.25
2019-04-03T22:41:46.282Z,34.18
2019-04-03T22:44:16.861Z,30.68
2019-04-03T22:46:44.978Z,35.68
2019-04-03T22:49:13.452Z,34.43
2019-04-03T22:51:41.996Z,35.03
2019-04-03T22:54:10.853Z,31.25
2019-04-03T22:56:40.660Z,32.50
2019-04-03T22:59:09.144Z,36.45
2019-04-03T23:01:37.641Z,67.85
2019-04-03T23:04:06.121Z,50.40
2019-04-03T23:06:34.597Z,42.93
2019-04-03T23:09:04.724Z,31.05
2019-04-03T23:11:33.560Z,31.82
2019-04-03T23:14:04.731Z,31.48
2019-04-03T23:16:33.310Z,37.73
2019-04-03T23:19:01.790Z,38.88
2019-04-03T23:21:30.260Z,39.18
2019-04-03T23:23:58.747Z,36.80
2019-04-03T23:26:27.257Z,34.75
2019-04-03T23:28:55.762Z,39.78
2019-04-03T23:31:24.267Z,42.40
2019-04-03T23:33:52.739Z,41.53
2019-04-03T23:36:23.056Z,51.10
2019-04-03T23:38:51.431Z,50.83
2019-04-03T23:41:19.943Z,47.13
2019-04-03T23:43:48.423Z,42.03
2019-04-03T23:46:16.908Z,40.30
2019-04-03T23:48:48.645Z,52.65
2019-04-03T23:51:23.088Z,43.85
2019-04-03T23:53:45.830Z,40.43
2019-04-03T23:56:14.314Z,35.48
2019-04-03T23:58:42.819Z,36.60
